sensor_id;sensor_type;location;lat;lon;timestamp;temperature;humidity
37478;DHT22;23334;54.316;10.182;2023-12-29T00:01:18;9.30;99.90
37478;DHT22;23334;54.316;10.182;2023-12-29T00:03:45;9.30;99.90
37478;DHT22;23334;54.316;10.182;2023-12-29T00:06:11;9.30;99.90
37478;DHT22;23334;54.316;10.182;2023-12-29T00:08:38;9.20;99.90
37478;DHT22;23334;54.316;10.182;2023-12-29T00:11:03;9.30;99.90
37478;DHT22;23334;54.316;10.182;2023-12-29T00:13:30;9.20;99.90
37478;DHT22;23334;54.316;10.182;2023-12-29T00:15:55;9.20;99.90
37478;DHT22;23334;54.316;10.182;2023-12-29T00:18:21;9.20;99.90
37478;DHT22;23334;54.316;10.182;2023-12-29T00:20:48;9.20;99.90
37478;DHT22;23334;54.316;10.182;2023-12-29T00:23:14;9.10;99.90
37478;DHT22;23334;54.316;10.182;2023-12-29T00:25:41;9.20;99.90
37478;DHT22;23334;54.316;10.182;2023-12-29T00:28:06;9.20;99.90
37478;DHT22;23334;54.316;10.182;2023-12-29T00:30:32;9.20;99.90
37478;DHT22;23334;54.316;10.182;2023-12-29T00:32:58;9.20;99.90
37478;DHT22;23334;54.316;10.182;2023-12-29T00:35:23;9.20;99.90
37478;DHT22;23334;54.316;10.182;2023-12-29T00:37:52;9.20;99.90
37478;DHT22;23334;54.316;10.182;2023-12-29T00:40:17;9.30;99.90
37478;DHT22;23334;54.316;10.182;2023-12-29T00:42:43;9.30;99.90
37478;DHT22;23334;54.316;10.182;2023-12-29T00:45:09;9.20;99.90
37478;DHT22;23334;54.316;10.182;2023-12-29T00:47:34;9.30;99.90
37478;DHT22;23334;54.316;10.182;2023-12-29T00:50:00;9.20;99.90
37478;DHT22;23334;54.316;10.182;2023-12-29T00:52:27;9.20;99.90
37478;DHT22;23334;54.316;10.182;2023-12-29T00:54:52;9.10;99.90
37478;DHT22;23334;54.316;10.182;2023-12-29T00:57:17;9.10;99.90
37478;DHT22;23334;54.316;10.182;2023-12-29T00:59:46;9.10;99.90
37478;DHT22;23334;54.316;10.182;2023-12-29T01:02:13;9.10;99.90
37478;DHT22;23334;54.316;10.182;2023-12-29T01:04:40;9.10;99.90
37478;DHT22;23334;54.316;10.182;2023-12-29T01:07:07;9.20;99.90
37478;DHT22;23334;54.316;10.182;2023-12-29T01:09:37;9.10;99.90
37478;DHT22;23334;54.316;10.182;2023-12-29T01:12:04;9.10;99.90
37478;DHT22;23334;54.316;10.182;2023-12-29T01:14:30;9.10;99.90
37478;DHT22;23334;54.316;10.182;2023-12-29T01:16:55;9.10;99.90
37478;DHT22;23334;54.316;10.182;2023-12-29T01:19:21;9.10;99.90
37478;DHT22;23334;54.316;10.182;2023-12-29T01:21:46;9.10;99.90
37478;DHT22;23334;54.316;10.182;2023-12-29T01:24:12;9.10;99.90
37478;DHT22;23334;54.316;10.182;2023-12-29T01:26:38;9.10;99.90
37478;DHT22;23334;54.316;10.182;2023-12-29T01:29:04;9.10;99.90
37478;DHT22;23334;54.316;10.182;2023-12-29T01:31:30;9.10;99.90
37478;DHT22;23334;54.316;10.182;2023-12-29T01:33:55;9.10;99.90
37478;DHT22;23334;54.316;10.182;2023-12-29T01:36:21;9.10;99.90
37478;DHT22;23334;54.316;10.182;2023-12-29T01:38:46;9.10;99.90
37478;DHT22;23334;54.316;10.182;2023-12-29T01:41:13;9.10;99.90
37478;DHT22;23334;54.316;10.182;2023-12-29T01:46:31;9.20;99.90
37478;DHT22;23334;54.316;10.182;2023-12-29T01:48:58;9.20;99.90
37478;DHT22;23334;54.316;10.182;2023-12-29T01:51:26;9.20;99.90
37478;DHT22;23334;54.316;10.182;2023-12-29T01:53:56;9.20;99.90
37478;DHT22;23334;54.316;10.182;2023-12-29T01:56:23;9.20;99.90
37478;DHT22;23334;54.316;10.182;2023-12-29T01:58:50;9.20;99.90
37478;DHT22;23334;54.316;10.182;2023-12-29T02:01:18;9.20;99.90
37478;DHT22;23334;54.316;10.182;2023-12-29T02:03:44;9.20;99.90
37478;DHT22;23334;54.316;10.182;2023-12-29T02:06:10;9.20;99.90
37478;DHT22;23334;54.316;10.182;2023-12-29T02:08:36;9.20;99.90
37478;DHT22;23334;54.316;10.182;2023-12-29T02:11:04;9.20;99.90
37478;DHT22;23334;54.316;10.182;2023-12-29T02:13:31;9.20;99.90
37478;DHT22;23334;54.316;10.182;2023-12-29T02:16:02;9.20;99.90
37478;DHT22;23334;54.316;10.182;2023-12-29T02:18:33;9.10;99.90
37478;DHT22;23334;54.316;10.182;2023-12-29T02:20:59;9.20;99.90
37478;DHT22;23334;54.316;10.182;2023-12-29T02:23:25;9.20;99.90
37478;DHT22;23334;54.316;10.182;2023-12-29T02:25:52;9.20;99.90
37478;DHT22;23334;54.316;10.182;2023-12-29T02:28:26;9.30;99.90
37478;DHT22;23334;54.316;10.182;2023-12-29T02:30:59;9.30;99.90
37478;DHT22;23334;54.316;10.182;2023-12-29T02:33:28;9.30;99.90
37478;DHT22;23334;54.316;10.182;2023-12-29T02:35:57;9.40;99.90
37478;DHT22;23334;54.316;10.182;2023-12-29T02:38:24;9.40;99.90
37478;DHT22;23334;54.316;10.182;2023-12-29T02:40:54;9.40;99.90
37478;DHT22;23334;54.316;10.182;2023-12-29T02:43:20;9.30;99.90
37478;DHT22;23334;54.316;10.182;2023-12-29T02:45:45;9.40;99.90
37478;DHT22;23334;54.316;10.182;2023-12-29T02:48:11;9.40;99.90
37478;DHT22;23334;54.316;10.182;2023-12-29T02:50:36;9.40;99.90
37478;DHT22;23334;54.316;10.182;2023-12-29T02:53:02;9.40;99.90
37478;DHT22;23334;54.316;10.182;2023-12-29T02:55:30;9.50;99.90
37478;DHT22;23334;54.316;10.182;2023-12-29T02:57:58;9.50;99.90
37478;DHT22;23334;54.316;10.182;2023-12-29T03:00:24;9.40;99.90
37478;DHT22;23334;54.316;10.182;2023-12-29T03:02:50;9.40;99.90
37478;DHT22;23334;54.316;10.182;2023-12-29T03:05:16;9.40;99.90
37478;DHT22;23334;54.316;10.182;2023-12-29T03:07:41;9.40;99.90
37478;DHT22;23334;54.316;10.182;2023-12-29T03:10:10;9.30;99.90
37478;DHT22;23334;54.316;10.182;2023-12-29T03:12:37;9.30;99.90
37478;DHT22;23334;54.316;10.182;2023-12-29T03:15:03;9.30;99.90
37478;DHT22;23334;54.316;10.182;2023-12-29T03:17:29;9.30;99.90
37478;DHT22;23334;54.316;10.182;2023-12-29T03:19:54;9.20;99.90
37478;DHT22;23334;54.316;10.182;2023-12-29T03:22:20;9.20;99.90
37478;DHT22;23334;54.316;10.182;2023-12-29T03:24:46;9.20;99.90
37478;DHT22;23334;54.316;10.182;2023-12-29T03:27:11;9.30;99.90
37478;DHT22;23334;54.316;10.182;2023-12-29T03:29:37;9.40;99.90
37478;DHT22;23334;54.316;10.182;2023-12-29T03:32:04;9.30;99.90
37478;DHT22;23334;54.316;10.182;2023-12-29T03:34:30;9.40;99.90
37478;DHT22;23334;54.316;10.182;2023-12-29T03:36:55;9.50;99.90
37478;DHT22;23334;54.316;10.182;2023-12-29T03:39:21;9.40;99.90
37478;DHT22;23334;54.316;10.182;2023-12-29T03:41:47;9.50;99.90
37478;DHT22;23334;54.316;10.182;2023-12-29T03:44:13;9.50;99.90
37478;DHT22;23334;54.316;10.182;2023-12-29T03:46:39;9.60;99.90
37478;DHT22;23334;54.316;10.182;2023-12-29T03:49:04;9.70;99.90
37478;DHT22;23334;54.316;10.182;2023-12-29T03:51:31;9.70;99.90
37478;DHT22;23334;54.316;10.182;2023-12-29T03:53:56;9.70;99.90
37478;DHT22;23334;54.316;10.182;2023-12-29T03:56:23;9.80;99.90
37478;DHT22;23334;54.316;10.182;2023-12-29T03:58:49;9.80;99.90
37478;DHT22;23334;54.316;10.182;2023-12-29T04:01:16;9.80;99.90
37478;DHT22;23334;54.316;10.182;2023-12-29T04:03:43;9.80;99.90
37478;DHT22;23334;54.316;10.182;2023-12-29T04:06:10;9.80;99.90
37478;DHT22;23334;54.316;10.182;2023-12-29T04:08:36;9.90;99.90
37478;DHT22;23334;54.316;10.182;2023-12-29T04:11:02;9.80;99.90
37478;DHT22;23334;54.316;10.182;2023-12-29T04:13:28;9.80;99.90
37478;DHT22;23334;54.316;10.182;2023-12-29T04:15:54;9.80;99.90
37478;DHT22;23334;54.316;10.182;2023-12-29T04:18:21;9.80;99.90
37478;DHT22;23334;54.316;10.182;2023-12-29T04:20:46;9.80;99.90
37478;DHT22;23334;54.316;10.182;2023-12-29T04:23:12;9.80;99.90
37478;DHT22;23334;54.316;10.182;2023-12-29T04:25:37;9.80;99.90
37478;DHT22;23334;54.316;10.182;2023-12-29T04:28:03;9.80;99.90
37478;DHT22;23334;54.316;10.182;2023-12-29T04:30:30;9.80;99.90
37478;DHT22;23334;54.316;10.182;2023-12-29T04:32:55;9.80;99.90
37478;DHT22;23334;54.316;10.182;2023-12-29T04:35:21;9.80;99.90
37478;DHT22;23334;54.316;10.182;2023-12-29T04:37:47;9.70;99.90
37478;DHT22;23334;54.316;10.182;2023-12-29T04:40:12;9.60;99.90
37478;DHT22;23334;54.316;10.182;2023-12-29T04:42:38;9.70;99.90
37478;DHT22;23334;54.316;10.182;2023-12-29T04:45:04;9.70;99.90
37478;DHT22;23334;54.316;10.182;2023-12-29T04:47:30;9.80;99.90
37478;DHT22;23334;54.316;10.182;2023-12-29T04:49:56;9.70;99.90
37478;DHT22;23334;54.316;10.182;2023-12-29T04:52:22;9.70;99.90
37478;DHT22;23334;54.316;10.182;2023-12-29T04:54:47;9.70;99.90
37478;DHT22;23334;54.316;10.182;2023-12-29T04:57:13;9.70;99.90
37478;DHT22;23334;54.316;10.182;2023-12-29T04:59:39;9.70;99.90
37478;DHT22;23334;54.316;10.182;2023-12-29T05:02:06;9.70;99.90
37478;DHT22;23334;54.316;10.182;2023-12-29T05:04:33;9.80;99.90
37478;DHT22;23334;54.316;10.182;2023-12-29T05:06:59;9.70;99.90
37478;DHT22;23334;54.316;10.182;2023-12-29T05:09:25;9.60;99.90
37478;DHT22;23334;54.316;10.182;2023-12-29T05:11:50;9.60;99.90
37478;DHT22;23334;54.316;10.182;2023-12-29T05:14:16;9.60;99.90
37478;DHT22;23334;54.316;10.182;2023-12-29T05:16:42;9.50;99.90
37478;DHT22;23334;54.316;10.182;2023-12-29T05:19:09;9.40;99.90
37478;DHT22;23334;54.316;10.182;2023-12-29T05:21:34;9.50;99.90
37478;DHT22;23334;54.316;10.182;2023-12-29T05:24:02;9.50;99.90
37478;DHT22;23334;54.316;10.182;2023-12-29T05:26:29;9.50;99.90
37478;DHT22;23334;54.316;10.182;2023-12-29T05:28:58;9.40;99.90
37478;DHT22;23334;54.316;10.182;2023-12-29T05:31:23;9.40;99.90
37478;DHT22;23334;54.316;10.182;2023-12-29T05:33:49;9.20;99.90
37478;DHT22;23334;54.316;10.182;2023-12-29T05:36:14;9.50;99.90
37478;DHT22;23334;54.316;10.182;2023-12-29T05:38:44;9.40;99.90
37478;DHT22;23334;54.316;10.182;2023-12-29T05:41:13;9.40;99.90
37478;DHT22;23334;54.316;10.182;2023-12-29T05:43:38;9.40;99.90
37478;DHT22;23334;54.316;10.182;2023-12-29T05:46:14;9.40;99.90
37478;DHT22;23334;54.316;10.182;2023-12-29T05:48:40;9.40;99.90
37478;DHT22;23334;54.316;10.182;2023-12-29T05:51:10;9.30;99.90
37478;DHT22;23334;54.316;10.182;2023-12-29T05:53:36;9.30;99.90
37478;DHT22;23334;54.316;10.182;2023-12-29T05:56:02;9.30;99.90
37478;DHT22;23334;54.316;10.182;2023-12-29T05:58:29;9.30;99.90
37478;DHT22;23334;54.316;10.182;2023-12-29T06:00:55;9.30;99.90
37478;DHT22;23334;54.316;10.182;2023-12-29T06:03:20;9.30;99.90
37478;DHT22;23334;54.316;10.182;2023-12-29T06:05:46;9.30;99.90
37478;DHT22;23334;54.316;10.182;2023-12-29T06:08:11;9.30;99.90
37478;DHT22;23334;54.316;10.182;2023-12-29T06:10:37;9.30;99.90
37478;DHT22;23334;54.316;10.182;2023-12-29T06:13:03;9.40;99.90
37478;DHT22;23334;54.316;10.182;2023-12-29T06:15:29;9.40;99.90
37478;DHT22;23334;54.316;10.182;2023-12-29T06:17:54;9.40;99.90
37478;DHT22;23334;54.316;10.182;2023-12-29T06:20:20;9.40;99.90
37478;DHT22;23334;54.316;10.182;2023-12-29T06:22:46;9.30;99.90
37478;DHT22;23334;54.316;10.182;2023-12-29T06:25:12;9.30;99.90
37478;DHT22;23334;54.316;10.182;2023-12-29T06:27:38;9.20;99.90
37478;DHT22;23334;54.316;10.182;2023-12-29T06:30:07;9.20;99.90
37478;DHT22;23334;54.316;10.182;2023-12-29T06:32:33;9.20;99.90
37478;DHT22;23334;54.316;10.182;2023-12-29T06:34:59;9.10;99.90
37478;DHT22;23334;54.316;10.182;2023-12-29T06:37:25;9.00;99.90
37478;DHT22;23334;54.316;10.182;2023-12-29T06:39:52;9.10;99.90
37478;DHT22;23334;54.316;10.182;2023-12-29T06:42:17;9.10;99.90
37478;DHT22;23334;54.316;10.182;2023-12-29T06:44:43;9.10;99.90
37478;DHT22;23334;54.316;10.182;2023-12-29T06:47:08;9.10;99.90
37478;DHT22;23334;54.316;10.182;2023-12-29T06:49:34;9.10;99.90
37478;DHT22;23334;54.316;10.182;2023-12-29T06:52:00;9.10;99.90
37478;DHT22;23334;54.316;10.182;2023-12-29T06:54:26;9.20;99.90
37478;DHT22;23334;54.316;10.182;2023-12-29T06:56:51;9.20;99.90
37478;DHT22;23334;54.316;10.182;2023-12-29T06:59:17;9.20;99.90
37478;DHT22;23334;54.316;10.182;2023-12-29T07:01:46;9.20;99.90
37478;DHT22;23334;54.316;10.182;2023-12-29T07:04:12;9.10;99.90
37478;DHT22;23334;54.316;10.182;2023-12-29T07:06:38;9.30;99.90
37478;DHT22;23334;54.316;10.182;2023-12-29T07:09:05;9.20;99.90
37478;DHT22;23334;54.316;10.182;2023-12-29T07:11:30;9.30;99.90
37478;DHT22;23334;54.316;10.182;2023-12-29T07:13:56;9.30;99.90
37478;DHT22;23334;54.316;10.182;2023-12-29T07:16:22;9.30;99.90
37478;DHT22;23334;54.316;10.182;2023-12-29T07:18:48;9.30;99.90
37478;DHT22;23334;54.316;10.182;2023-12-29T07:21:15;9.30;99.90
37478;DHT22;23334;54.316;10.182;2023-12-29T07:23:46;9.30;99.90
37478;DHT22;23334;54.316;10.182;2023-12-29T07:26:12;9.30;99.90
37478;DHT22;23334;54.316;10.182;2023-12-29T07:28:37;9.30;99.90
37478;DHT22;23334;54.316;10.182;2023-12-29T07:31:03;9.20;99.90
37478;DHT22;23334;54.316;10.182;2023-12-29T07:33:29;9.30;99.90
37478;DHT22;23334;54.316;10.182;2023-12-29T07:35:56;9.20;99.90
37478;DHT22;23334;54.316;10.182;2023-12-29T07:38:21;9.30;99.90
37478;DHT22;23334;54.316;10.182;2023-12-29T07:40:47;9.20;99.90
37478;DHT22;23334;54.316;10.182;2023-12-29T07:43:15;9.20;99.90
37478;DHT22;23334;54.316;10.182;2023-12-29T07:45:51;9.20;99.90
37478;DHT22;23334;54.316;10.182;2023-12-29T07:48:22;9.20;99.90
37478;DHT22;23334;54.316;10.182;2023-12-29T07:50:48;9.20;99.90
37478;DHT22;23334;54.316;10.182;2023-12-29T07:53:13;9.20;99.90
37478;DHT22;23334;54.316;10.182;2023-12-29T07:55:38;9.20;99.90
37478;DHT22;23334;54.316;10.182;2023-12-29T07:58:05;9.10;99.90
37478;DHT22;23334;54.316;10.182;2023-12-29T08:00:33;9.00;99.90
37478;DHT22;23334;54.316;10.182;2023-12-29T08:02:58;9.00;99.90
37478;DHT22;23334;54.316;10.182;2023-12-29T08:05:24;8.90;99.90
37478;DHT22;23334;54.316;10.182;2023-12-29T08:07:50;8.90;99.90
37478;DHT22;23334;54.316;10.182;2023-12-29T08:10:16;8.90;99.90
37478;DHT22;23334;54.316;10.182;2023-12-29T08:12:41;9.00;99.90
37478;DHT22;23334;54.316;10.182;2023-12-29T08:15:07;9.00;99.90
37478;DHT22;23334;54.316;10.182;2023-12-29T08:17:34;9.10;99.90
37478;DHT22;23334;54.316;10.182;2023-12-29T08:19:59;9.00;99.90
37478;DHT22;23334;54.316;10.182;2023-12-29T08:22:29;9.00;99.90
37478;DHT22;23334;54.316;10.182;2023-12-29T08:24:56;9.00;99.90
37478;DHT22;23334;54.316;10.182;2023-12-29T08:27:26;9.00;99.90
37478;DHT22;23334;54.316;10.182;2023-12-29T08:29:52;9.10;99.90
37478;DHT22;23334;54.316;10.182;2023-12-29T08:32:19;9.10;99.90
37478;DHT22;23334;54.316;10.182;2023-12-29T08:34:46;9.10;99.90
37478;DHT22;23334;54.316;10.182;2023-12-29T08:37:11;9.20;99.90
37478;DHT22;23334;54.316;10.182;2023-12-29T08:39:37;9.30;99.90
37478;DHT22;23334;54.316;10.182;2023-12-29T08:42:03;9.20;99.90
37478;DHT22;23334;54.316;10.182;2023-12-29T08:44:29;9.30;99.90
37478;DHT22;23334;54.316;10.182;2023-12-29T08:46:55;9.30;99.90
37478;DHT22;23334;54.316;10.182;2023-12-29T08:49:20;9.30;99.90
37478;DHT22;23334;54.316;10.182;2023-12-29T08:51:48;9.30;99.90
37478;DHT22;23334;54.316;10.182;2023-12-29T08:54:13;9.30;99.90
37478;DHT22;23334;54.316;10.182;2023-12-29T08:56:40;9.30;99.90
37478;DHT22;23334;54.316;10.182;2023-12-29T08:59:05;9.40;99.90
37478;DHT22;23334;54.316;10.182;2023-12-29T09:01:31;9.30;99.90
37478;DHT22;23334;54.316;10.182;2023-12-29T09:03:58;9.40;99.90
37478;DHT22;23334;54.316;10.182;2023-12-29T09:06:23;9.50;99.90
37478;DHT22;23334;54.316;10.182;2023-12-29T09:08:50;9.50;99.90
37478;DHT22;23334;54.316;10.182;2023-12-29T09:11:15;9.50;99.90
37478;DHT22;23334;54.316;10.182;2023-12-29T09:13:41;9.40;99.90
37478;DHT22;23334;54.316;10.182;2023-12-29T09:16:07;9.70;99.90
37478;DHT22;23334;54.316;10.182;2023-12-29T09:18:33;9.30;99.90
37478;DHT22;23334;54.316;10.182;2023-12-29T09:20:59;9.40;99.90
37478;DHT22;23334;54.316;10.182;2023-12-29T09:23:24;9.30;99.90
37478;DHT22;23334;54.316;10.182;2023-12-29T09:25:50;9.30;99.90
37478;DHT22;23334;54.316;10.182;2023-12-29T09:28:17;9.30;99.90
37478;DHT22;23334;54.316;10.182;2023-12-29T09:30:42;9.30;99.90
37478;DHT22;23334;54.316;10.182;2023-12-29T09:33:08;9.40;99.90
37478;DHT22;23334;54.316;10.182;2023-12-29T09:35:35;9.40;99.90
37478;DHT22;23334;54.316;10.182;2023-12-29T09:38:01;9.50;99.90
37478;DHT22;23334;54.316;10.182;2023-12-29T09:40:27;9.50;99.90
37478;DHT22;23334;54.316;10.182;2023-12-29T09:42:52;9.50;99.90
37478;DHT22;23334;54.316;10.182;2023-12-29T09:45:23;9.50;99.90
37478;DHT22;23334;54.316;10.182;2023-12-29T09:47:51;9.50;99.90
37478;DHT22;23334;54.316;10.182;2023-12-29T09:50:19;9.40;99.90
